createdAt,value
2018-12-14T00:02:17.716Z,3.90
2018-12-14T00:04:46.112Z,4.43
2018-12-14T00:07:14.891Z,4.33
2018-12-14T00:09:43.612Z,3.80
2018-12-14T00:12:12.180Z,3.93
2018-12-14T00:14:40.589Z,4.03
2018-12-14T00:17:09.016Z,4.40
2018-12-14T00:19:37.420Z,4.47
2018-12-14T00:22:05.993Z,4.13
2018-12-14T00:24:34.395Z,4.13
2018-12-14T00:27:03.633Z,4.57
2018-12-14T00:29:32.064Z,4.13
2018-12-14T00:32:00.442Z,4.30
2018-12-14T00:34:29.002Z,3.97
2018-12-14T00:36:57.517Z,4.40
2018-12-14T00:39:25.897Z,4.33
2018-12-14T00:41:54.633Z,4.23
2018-12-14T00:44:23.097Z,4.17
2018-12-14T00:46:51.477Z,4.67
2018-12-14T00:49:19.856Z,4.27
2018-12-14T00:51:48.297Z,4.63
2018-12-14T00:54:16.821Z,4.60
2018-12-14T00:56:45.324Z,4.03
2018-12-14T00:59:14.423Z,4.10
2018-12-14T01:01:42.853Z,4.10
2018-12-14T01:04:11.428Z,4.17
2018-12-14T01:06:39.889Z,3.87
2018-12-14T01:09:08.567Z,4.27
2018-12-14T01:11:37.819Z,3.83
2018-12-14T01:14:06.379Z,4.63
2018-12-14T01:16:34.812Z,4.53
2018-12-14T01:19:03.196Z,4.10
2018-12-14T01:21:31.593Z,4.50
2018-12-14T01:23:59.973Z,4.07
2018-12-14T01:26:31.321Z,3.80
2018-12-14T01:28:59.800Z,4.10
2018-12-14T01:31:28.375Z,4.53
2018-12-14T01:33:56.773Z,4.10
2018-12-14T01:36:25.220Z,4.50
2018-12-14T01:38:53.616Z,4.33
2018-12-14T01:41:22.616Z,4.03
2018-12-14T01:43:51.061Z,4.50
2018-12-14T01:46:19.702Z,4.60
2018-12-14T01:48:48.336Z,4.70
2018-12-14T01:51:16.997Z,4.30
2018-12-14T01:53:45.442Z,4.67
2018-12-14T01:56:13.828Z,4.10
2018-12-14T01:58:42.385Z,4.27
2018-12-14T02:01:10.803Z,4.40
2018-12-14T02:03:39.224Z,5.00
2018-12-14T02:06:07.708Z,4.13
2018-12-14T02:08:36.101Z,4.27
2018-12-14T02:11:04.805Z,5.10
2018-12-14T02:13:34.816Z,4.53
2018-12-14T02:16:03.246Z,4.17
2018-12-14T02:18:31.649Z,4.30
2018-12-14T02:21:00.099Z,4.10
2018-12-14T02:23:28.501Z,4.17
2018-12-14T02:25:56.883Z,3.97
2018-12-14T02:28:25.293Z,4.30
2018-12-14T02:30:53.743Z,3.63
2018-12-14T02:33:22.226Z,4.17
2018-12-14T02:35:50.661Z,3.90
2018-12-14T02:38:19.276Z,4.27
2018-12-14T02:40:47.688Z,4.23
2018-12-14T02:43:16.125Z,4.37
2018-12-14T02:45:44.531Z,4.10
2018-12-14T02:48:12.956Z,4.33
2018-12-14T02:50:41.897Z,4.30
2018-12-14T02:53:10.325Z,4.03
2018-12-14T02:55:38.770Z,3.73
2018-12-14T02:58:07.742Z,4.13
2018-12-14T03:00:36.250Z,3.50
2018-12-14T03:03:04.634Z,4.40
2018-12-14T03:05:33.073Z,4.57
2018-12-14T03:08:01.743Z,4.50
2018-12-14T03:10:30.127Z,3.90
2018-12-14T03:12:58.693Z,3.40
2018-12-14T03:15:27.193Z,4.83
2018-12-14T03:17:55.668Z,4.87
2018-12-14T03:20:24.102Z,4.00
2018-12-14T03:22:52.497Z,3.80
2018-12-14T03:25:20.969Z,4.50
2018-12-14T03:27:49.413Z,3.60
2018-12-14T03:30:17.783Z,4.00
2018-12-14T03:32:47.341Z,4.37
2018-12-14T03:35:15.879Z,4.70
2018-12-14T03:37:44.257Z,4.13
2018-12-14T03:40:12.656Z,4.30
2018-12-14T03:42:41.568Z,3.90
2018-12-14T03:45:10.636Z,4.03
2018-12-14T03:47:39.026Z,3.70
2018-12-14T03:50:07.966Z,3.57
2018-12-14T03:52:36.345Z,3.87
2018-12-14T03:55:05.523Z,4.50
2018-12-14T03:57:34.074Z,3.83
2018-12-14T04:00:02.468Z,4.17
2018-12-14T04:02:30.862Z,3.70
2018-12-14T04:04:59.297Z,3.60
2018-12-14T04:07:27.805Z,3.87
2018-12-14T04:09:56.200Z,4.00
2018-12-14T04:12:24.628Z,3.73
2018-12-14T04:14:53.226Z,4.10
2018-12-14T04:17:21.782Z,4.00
2018-12-14T04:19:50.775Z,3.63
2018-12-14T04:22:19.185Z,3.80
2018-12-14T04:24:47.587Z,3.13
2018-12-14T04:27:16.027Z,3.30
2018-12-14T04:29:44.598Z,3.57
2018-12-14T04:32:13.125Z,3.67
2018-12-14T04:34:41.533Z,3.30
2018-12-14T04:37:09.933Z,3.50
2018-12-14T04:39:38.360Z,3.60
2018-12-14T04:42:09.662Z,3.03
2018-12-14T04:44:38.043Z,3.17
2018-12-14T04:47:07.427Z,3.00
2018-12-14T04:49:36.406Z,3.27
2018-12-14T04:52:09.972Z,4.07
2018-12-14T04:54:38.372Z,3.40
2018-12-14T04:57:06.946Z,3.47
2018-12-14T04:59:35.668Z,3.23
2018-12-14T05:02:04.223Z,3.43
2018-12-14T05:04:32.797Z,3.37
2018-12-14T05:07:01.368Z,2.87
2018-12-14T05:09:29.768Z,2.90
2018-12-14T05:11:58.270Z,2.80
2018-12-14T05:14:26.975Z,3.33
2018-12-14T05:16:55.762Z,3.00
2018-12-14T05:19:24.396Z,2.67
2018-12-14T05:21:53.260Z,2.93
2018-12-14T05:24:21.665Z,3.23
2018-12-14T05:26:50.063Z,2.63
2018-12-14T05:29:18.514Z,2.93
2018-12-14T05:31:47.292Z,2.30
2018-12-14T05:34:15.829Z,3.40
2018-12-14T05:36:44.333Z,2.67
2018-12-14T05:39:12.733Z,2.57
2018-12-14T05:41:41.906Z,2.23
2018-12-14T05:44:10.577Z,2.50
2018-12-14T05:46:39.018Z,3.30
2018-12-14T05:49:07.695Z,2.77
2018-12-14T05:51:36.277Z,2.50
2018-12-14T05:54:04.697Z,2.40
2018-12-14T05:56:33.133Z,2.60
2018-12-14T05:59:03.545Z,2.53
2018-12-14T06:01:31.968Z,2.90
2018-12-14T06:04:00.754Z,2.30
2018-12-14T06:06:29.356Z,2.10
2018-12-14T06:08:57.836Z,2.80
2018-12-14T06:11:26.227Z,2.80
2018-12-14T06:13:54.754Z,2.73
2018-12-14T06:16:23.183Z,3.37
2018-12-14T06:18:58.763Z,3.00
2018-12-14T06:21:27.422Z,2.53
2018-12-14T06:23:55.876Z,2.73
2018-12-14T06:26:24.304Z,2.67
2018-12-14T06:28:52.708Z,2.80
2018-12-14T06:31:21.084Z,2.70
2018-12-14T06:33:49.927Z,2.63
2018-12-14T06:36:18.520Z,2.50
2018-12-14T06:38:47.062Z,2.40
2018-12-14T06:41:15.683Z,2.67
2018-12-14T06:43:44.088Z,2.70
2018-12-14T06:46:12.485Z,2.63
2018-12-14T06:48:40.956Z,2.70
2018-12-14T06:51:09.881Z,2.57
2018-12-14T06:53:38.300Z,2.93
2018-12-14T06:56:06.866Z,2.53
2018-12-14T06:58:35.474Z,2.73
2018-12-14T07:01:03.893Z,2.57
2018-12-14T07:03:32.474Z,2.80
2018-12-14T07:06:00.924Z,3.23
2018-12-14T07:08:29.312Z,2.97
2018-12-14T07:10:57.760Z,3.03
2018-12-14T07:13:26.223Z,2.90
2018-12-14T07:15:54.621Z,2.77
2018-12-14T07:18:23.051Z,2.73
2018-12-14T07:20:52.193Z,2.83
2018-12-14T07:23:20.692Z,3.20
2018-12-14T07:25:49.168Z,3.27
2018-12-14T07:28:17.558Z,4.43
2018-12-14T07:30:45.928Z,3.90
2018-12-14T07:33:14.762Z,3.70
2018-12-14T07:35:43.352Z,3.37
2018-12-14T07:38:11.743Z,3.30
2018-12-14T07:40:40.191Z,3.03
2018-12-14T07:43:08.613Z,3.50
2018-12-14T07:45:37.178Z,4.60
2018-12-14T07:48:05.626Z,4.90
2018-12-14T07:50:34.053Z,3.10
2018-12-14T07:53:09.008Z,3.27
2018-12-14T07:55:33.164Z,3.13
2018-12-14T07:58:01.559Z,3.30
2018-12-14T08:00:29.964Z,3.30
2018-12-14T08:02:58.370Z,3.33
2018-12-14T08:05:26.886Z,2.60
2018-12-14T08:07:55.293Z,3.50
2018-12-14T08:10:23.730Z,3.27
2018-12-14T08:12:53.053Z,3.60
2018-12-14T08:15:21.523Z,3.50
2018-12-14T08:17:49.921Z,3.10
2018-12-14T08:20:18.337Z,3.30
2018-12-14T08:22:46.861Z,3.43
2018-12-14T08:25:15.527Z,3.20
2018-12-14T08:27:43.886Z,3.53
2018-12-14T08:30:12.297Z,2.97
2018-12-14T08:32:40.753Z,3.60
2018-12-14T08:35:09.201Z,3.33
2018-12-14T08:37:37.602Z,3.47
2018-12-14T08:40:07.014Z,3.23
2018-12-14T08:42:35.408Z,3.87
2018-12-14T08:45:04.142Z,2.83
2018-12-14T08:47:32.601Z,3.17
2018-12-14T08:50:01.028Z,2.93
2018-12-14T08:52:29.838Z,3.73
2018-12-14T08:54:58.488Z,2.83
2018-12-14T08:57:27.155Z,3.37
2018-12-14T08:59:55.607Z,3.10
2018-12-14T09:02:24.411Z,3.30
2018-12-14T09:04:52.798Z,3.13
2018-12-14T09:07:24.555Z,3.80
2018-12-14T09:09:52.291Z,3.37
2018-12-14T09:12:20.695Z,3.17
2018-12-14T09:14:49.102Z,3.30
2018-12-14T09:17:18.109Z,3.50
2018-12-14T09:19:46.500Z,3.23
2018-12-14T09:22:14.875Z,3.20
2018-12-14T09:24:43.474Z,3.17
2018-12-14T09:27:12.308Z,3.03
2018-12-14T09:29:40.709Z,2.97
2018-12-14T09:32:09.266Z,3.13
2018-12-14T09:34:38.932Z,2.93
2018-12-14T09:37:07.556Z,3.20
2018-12-14T09:39:36.007Z,3.27
2018-12-14T09:42:04.557Z,2.53
2018-12-14T09:44:32.945Z,2.43
2018-12-14T09:47:01.392Z,2.30
2018-12-14T09:49:29.826Z,2.33
2018-12-14T09:51:58.206Z,2.90
2018-12-14T09:54:27.684Z,2.57
2018-12-14T09:56:56.176Z,2.53
2018-12-14T09:59:24.571Z,2.37
2018-12-14T10:01:53.039Z,2.50
2018-12-14T10:04:21.413Z,2.40
2018-12-14T10:06:49.898Z,2.30
2018-12-14T10:09:18.412Z,2.50
2018-12-14T10:11:48.003Z,2.10
2018-12-14T10:14:17.005Z,3.27
2018-12-14T10:16:45.457Z,2.27
2018-12-14T10:19:14.021Z,2.17
2018-12-14T10:21:42.426Z,2.20
2018-12-14T10:24:10.916Z,2.50
2018-12-14T10:26:39.758Z,2.63
2018-12-14T10:29:08.424Z,2.03
2018-12-14T10:31:36.904Z,2.33
2018-12-14T10:34:05.449Z,2.27
2018-12-14T10:36:33.986Z,2.40
2018-12-14T10:39:02.521Z,2.23
2018-12-14T10:41:31.403Z,2.37
2018-12-14T10:43:59.819Z,2.37
2018-12-14T10:46:28.229Z,2.20
2018-12-14T10:48:56.753Z,2.03
2018-12-14T10:51:25.257Z,2.57
2018-12-14T10:53:53.703Z,2.77
2018-12-14T10:56:22.109Z,2.30
2018-12-14T10:58:50.618Z,2.53
2018-12-14T11:01:24.298Z,2.07
2018-12-14T11:03:52.704Z,2.30
2018-12-14T11:06:21.328Z,2.30
2018-12-14T11:08:49.870Z,2.10
2018-12-14T11:11:18.693Z,2.10
2018-12-14T11:13:47.068Z,2.53
2018-12-14T11:16:15.498Z,2.70
2018-12-14T11:18:43.894Z,2.40
2018-12-14T11:21:12.292Z,2.37
2018-12-14T11:23:40.736Z,2.30
2018-12-14T11:26:09.136Z,2.33
2018-12-14T11:28:37.677Z,3.33
2018-12-14T11:31:06.295Z,3.10
2018-12-14T11:33:34.717Z,2.97
2018-12-14T11:36:09.544Z,3.10
2018-12-14T11:38:37.990Z,3.57
2018-12-14T11:41:06.384Z,2.87
2018-12-14T11:43:35.287Z,3.27
2018-12-14T11:46:04.104Z,3.00
2018-12-14T11:48:32.475Z,2.90
2018-12-14T11:51:00.889Z,2.90
2018-12-14T11:53:29.543Z,3.07
2018-12-14T11:55:58.108Z,3.10
2018-12-14T11:58:26.521Z,2.90
2018-12-14T12:00:54.917Z,3.20
2018-12-14T12:03:23.299Z,2.70
2018-12-14T12:05:51.861Z,2.83
2018-12-14T12:08:20.511Z,2.93
2018-12-14T12:10:49.040Z,2.90
2018-12-14T12:13:17.468Z,2.67
2018-12-14T12:15:46.097Z,3.00
2018-12-14T12:18:14.492Z,3.17
2018-12-14T12:20:42.903Z,2.73
2018-12-14T12:23:11.332Z,3.17
2018-12-14T12:25:39.774Z,3.00
2018-12-14T12:28:08.427Z,2.87
2018-12-14T12:30:36.976Z,2.80
2018-12-14T12:33:05.878Z,3.00
2018-12-14T12:35:34.325Z,3.57
2018-12-14T12:38:02.708Z,2.60
2018-12-14T12:40:31.080Z,2.60
2018-12-14T12:42:59.611Z,3.03
2018-12-14T12:45:28.105Z,2.63
2018-12-14T12:47:56.522Z,2.60
2018-12-14T12:50:25.009Z,2.40
2018-12-14T12:52:53.389Z,2.90
2018-12-14T12:55:21.758Z,2.47
2018-12-14T12:57:50.175Z,2.70
2018-12-14T13:00:18.759Z,2.70
2018-12-14T13:02:47.138Z,3.10
2018-12-14T13:05:15.576Z,2.60
2018-12-14T13:07:46.550Z,2.70
2018-12-14T13:10:14.934Z,2.37
2018-12-14T13:12:43.414Z,2.90
2018-12-14T13:15:11.800Z,2.60
2018-12-14T13:17:40.278Z,2.80
2018-12-14T13:20:08.886Z,2.50
2018-12-14T13:22:37.403Z,2.80
2018-12-14T13:25:05.826Z,2.80
2018-12-14T13:27:34.313Z,3.03
2018-12-14T13:30:02.954Z,2.60
2018-12-14T13:32:31.484Z,3.10
2018-12-14T13:35:00.238Z,2.93
2018-12-14T13:37:28.633Z,2.80
2018-12-14T13:39:57.174Z,2.53
2018-12-14T13:42:25.613Z,3.10
2018-12-14T13:44:54.358Z,3.27
2018-12-14T13:47:22.744Z,3.53
2018-12-14T13:49:51.344Z,3.20
2018-12-14T13:52:19.776Z,3.00
2018-12-14T13:54:48.177Z,3.00
2018-12-14T13:57:16.591Z,2.93
2018-12-14T13:59:45.018Z,3.07
2018-12-14T14:02:13.647Z,2.80
2018-12-14T14:04:42.101Z,2.80
2018-12-14T14:07:10.478Z,3.10
2018-12-14T14:09:40.954Z,2.53
2018-12-14T14:12:09.415Z,3.07
2018-12-14T14:14:37.876Z,3.10
2018-12-14T14:17:06.389Z,2.90
2018-12-14T14:19:35.218Z,2.80
2018-12-14T14:22:03.624Z,3.33
2018-12-14T14:24:32.066Z,3.67
2018-12-14T14:27:00.481Z,2.70
2018-12-14T14:29:28.958Z,3.13
2018-12-14T14:31:57.353Z,3.20
2018-12-14T14:34:26.308Z,3.57
2018-12-14T14:36:54.797Z,3.43
2018-12-14T14:39:23.421Z,2.93
2018-12-14T14:41:51.893Z,3.17
2018-12-14T14:44:20.377Z,3.07
2018-12-14T14:46:48.769Z,2.77
2018-12-14T14:49:17.212Z,3.00
2018-12-14T14:51:46.224Z,3.20
2018-12-14T14:54:14.676Z,3.23
2018-12-14T14:56:43.124Z,2.83
2018-12-14T14:59:13.173Z,3.13
2018-12-14T15:01:41.752Z,3.10
2018-12-14T15:04:10.604Z,3.10
2018-12-14T15:06:39.205Z,3.10
2018-12-14T15:09:11.074Z,3.67
2018-12-14T15:11:39.520Z,3.20
2018-12-14T15:14:07.928Z,3.23
2018-12-14T15:16:36.332Z,3.00
2018-12-14T15:19:05.002Z,3.27
2018-12-14T15:21:33.552Z,3.70
2018-12-14T15:24:01.966Z,3.03
2018-12-14T15:26:30.395Z,4.17
2018-12-14T15:28:59.121Z,3.83
2018-12-14T15:31:27.529Z,3.30
2018-12-14T15:33:55.965Z,3.30
2018-12-14T15:36:24.523Z,2.90
2018-12-14T15:38:53.044Z,3.30
2018-12-14T15:41:21.957Z,3.40
2018-12-14T15:43:50.558Z,3.50
2018-12-14T15:46:19.495Z,3.70
2018-12-14T15:48:47.945Z,3.70
2018-12-14T15:51:16.504Z,3.97
2018-12-14T15:53:44.957Z,3.67
2018-12-14T15:56:13.584Z,3.77
2018-12-14T15:58:42.012Z,3.80
2018-12-14T16:01:10.698Z,3.40
2018-12-14T16:03:39.176Z,4.00
2018-12-14T16:06:07.647Z,3.63
2018-12-14T16:08:36.193Z,4.00
2018-12-14T16:11:04.723Z,3.83
2018-12-14T16:13:33.118Z,3.70
2018-12-14T16:16:01.629Z,3.63
2018-12-14T16:18:30.065Z,3.73
2018-12-14T16:20:58.861Z,4.27
2018-12-14T16:23:27.693Z,3.77
2018-12-14T16:25:56.259Z,3.73
2018-12-14T16:28:24.666Z,4.13
2018-12-14T16:30:53.892Z,4.60
2018-12-14T16:33:22.446Z,4.33
2018-12-14T16:35:51.036Z,4.40
2018-12-14T16:38:19.632Z,3.80
2018-12-14T16:40:48.591Z,4.57
2018-12-14T16:43:17.350Z,4.33
2018-12-14T16:45:45.733Z,4.30
2018-12-14T16:48:14.183Z,3.97
2018-12-14T16:50:42.617Z,3.93
2018-12-14T16:53:11.020Z,4.57
2018-12-14T16:55:39.587Z,4.73
2018-12-14T16:58:08.257Z,5.10
2018-12-14T17:00:36.669Z,4.70
2018-12-14T17:03:05.621Z,4.63
2018-12-14T17:05:34.034Z,5.33
2018-12-14T17:08:02.481Z,4.57
2018-12-14T17:10:31.019Z,5.13
2018-12-14T17:12:59.559Z,5.00
2018-12-14T17:15:33.166Z,4.60
2018-12-14T17:17:58.478Z,5.33
2018-12-14T17:20:26.937Z,4.87
2018-12-14T17:22:55.360Z,5.50
2018-12-14T17:25:23.881Z,5.13
2018-12-14T17:27:52.304Z,4.80
2018-12-14T17:30:20.773Z,4.77
2018-12-14T17:32:49.427Z,4.63
2018-12-14T17:35:18.112Z,4.60
2018-12-14T17:37:46.655Z,4.63
2018-12-14T17:40:15.237Z,5.03
2018-12-14T17:42:43.741Z,4.87
2018-12-14T17:45:12.153Z,4.90
2018-12-14T17:47:40.745Z,5.60
2018-12-14T17:50:09.278Z,5.43
2018-12-14T17:52:39.065Z,4.90
2018-12-14T17:55:07.766Z,5.10
2018-12-14T17:57:36.428Z,5.07
2018-12-14T18:00:06.037Z,5.90
2018-12-14T18:02:34.688Z,6.03
2018-12-14T18:05:03.299Z,4.63
2018-12-14T18:07:31.968Z,4.87
2018-12-14T18:10:00.457Z,7.63
2018-12-14T18:12:28.845Z,9.50
2018-12-14T18:14:57.332Z,6.33
2018-12-14T18:17:25.874Z,5.90
2018-12-14T18:19:54.294Z,5.17
2018-12-14T18:22:22.976Z,5.60
2018-12-14T18:24:51.554Z,5.67
2018-12-14T18:27:20.705Z,5.73
2018-12-14T18:29:49.163Z,5.30
2018-12-14T18:32:17.956Z,7.33
2018-12-14T18:34:46.392Z,8.43
2018-12-14T18:37:14.786Z,8.20
2018-12-14T18:39:43.271Z,8.27
2018-12-14T18:42:11.877Z,6.60
2018-12-14T18:44:40.556Z,6.87
2018-12-14T18:47:09.042Z,7.07
2018-12-14T18:49:40.632Z,6.30
2018-12-14T18:52:09.254Z,6.93
2018-12-14T18:54:37.656Z,6.30
2018-12-14T18:57:06.044Z,6.67
2018-12-14T18:59:35.709Z,6.20
2018-12-14T19:02:04.093Z,6.07
2018-12-14T19:04:32.568Z,6.63
2018-12-14T19:07:01.234Z,6.20
2018-12-14T19:09:29.833Z,7.17
2018-12-14T19:11:58.241Z,6.27
2018-12-14T19:14:26.713Z,6.03
2018-12-14T19:16:55.250Z,5.90
2018-12-14T19:19:24.253Z,6.77
2018-12-14T19:21:52.798Z,6.90
2018-12-14T19:24:21.281Z,6.40
2018-12-14T19:26:49.702Z,5.77
2018-12-14T19:29:18.430Z,7.07
2018-12-14T19:31:46.821Z,6.33
2018-12-14T19:34:15.293Z,6.47
2018-12-14T19:36:43.733Z,6.33
2018-12-14T19:39:13.362Z,6.63
2018-12-14T19:41:41.787Z,6.10
2018-12-14T19:44:10.381Z,6.50
2018-12-14T19:46:39.707Z,8.67
2018-12-14T19:49:08.605Z,8.10
2018-12-14T19:51:37.246Z,5.63
2018-12-14T19:54:05.693Z,6.33
2018-12-14T19:56:34.107Z,6.67
2018-12-14T19:59:02.873Z,5.97
2018-12-14T20:01:31.413Z,6.13
2018-12-14T20:03:59.808Z,6.10
2018-12-14T20:06:28.673Z,6.57
2018-12-14T20:08:57.095Z,5.37
2018-12-14T20:11:25.618Z,7.50
2018-12-14T20:13:55.393Z,6.20
2018-12-14T20:16:23.829Z,5.90
2018-12-14T20:18:53.192Z,5.50
2018-12-14T20:21:21.656Z,5.70
2018-12-14T20:23:53.456Z,6.07
2018-12-14T20:26:23.161Z,5.50
2018-12-14T20:28:51.664Z,5.17
2018-12-14T20:31:20.083Z,5.27
2018-12-14T20:33:48.675Z,5.40
2018-12-14T20:36:17.077Z,5.80
2018-12-14T20:38:45.736Z,5.37
2018-12-14T20:41:14.257Z,5.03
2018-12-14T20:43:42.704Z,5.33
2018-12-14T20:46:11.942Z,6.10
2018-12-14T20:48:42.049Z,6.20
2018-12-14T20:51:10.576Z,5.50
2018-12-14T20:53:39.008Z,5.40
2018-12-14T20:56:11.158Z,5.47
2018-12-14T20:58:40.628Z,5.47
2018-12-14T21:01:09.781Z,5.57
2018-12-14T21:03:39.178Z,4.70
2018-12-14T21:06:10.692Z,5.10
2018-12-14T21:08:40.400Z,5.23
2018-12-14T21:11:08.875Z,4.57
2018-12-14T21:13:40.568Z,4.43
2018-12-14T21:16:08.985Z,4.30
2018-12-14T21:18:37.906Z,4.73
2018-12-14T21:21:06.379Z,4.77
2018-12-14T21:23:34.782Z,4.50
2018-12-14T21:26:03.173Z,4.07
2018-12-14T21:28:31.611Z,4.50
2018-12-14T21:31:00.075Z,3.80
2018-12-14T21:33:28.510Z,4.57
2018-12-14T21:35:56.960Z,4.70
2018-12-14T21:38:25.383Z,4.80
2018-12-14T21:40:53.772Z,7.93
2018-12-14T21:43:22.914Z,5.43
2018-12-14T21:45:51.340Z,4.10
2018-12-14T21:48:19.984Z,4.00
2018-12-14T21:50:48.741Z,4.30
2018-12-14T21:53:17.157Z,4.23
2018-12-14T21:55:45.560Z,4.17
2018-12-14T21:58:14.135Z,4.30
2018-12-14T22:00:42.537Z,4.30
2018-12-14T22:03:10.985Z,4.93
2018-12-14T22:05:39.534Z,4.10
2018-12-14T22:08:08.684Z,4.27
2018-12-14T22:10:37.105Z,4.60
2018-12-14T22:13:05.654Z,4.87
2018-12-14T22:15:34.053Z,3.90
2018-12-14T22:18:02.514Z,4.80
2018-12-14T22:20:30.952Z,5.03
2018-12-14T22:22:59.414Z,4.10
2018-12-14T22:25:27.870Z,3.73
2018-12-14T22:27:56.549Z,3.83
2018-12-14T22:30:24.924Z,4.07
2018-12-14T22:32:53.347Z,3.83
2018-12-14T22:35:21.920Z,4.10
2018-12-14T22:37:50.349Z,3.87
2018-12-14T22:40:18.735Z,3.57
2018-12-14T22:42:47.167Z,3.27
2018-12-14T22:45:15.578Z,3.17
2018-12-14T22:47:44.191Z,3.53
2018-12-14T22:50:13.120Z,3.47
2018-12-14T22:52:42.209Z,3.17
2018-12-14T22:55:10.625Z,3.40
2018-12-14T22:57:39.857Z,3.30
2018-12-14T23:00:12.377Z,3.27
2018-12-14T23:02:40.901Z,3.47
2018-12-14T23:05:10.390Z,3.30
2018-12-14T23:07:38.770Z,2.80
2018-12-14T23:10:07.342Z,3.40
2018-12-14T23:12:36.500Z,2.97
2018-12-14T23:15:05.700Z,3.37
2018-12-14T23:17:34.360Z,3.57
2018-12-14T23:20:02.905Z,2.80
2018-12-14T23:22:31.482Z,3.47
2018-12-14T23:25:00.235Z,3.53
2018-12-14T23:27:28.776Z,3.97
2018-12-14T23:29:57.198Z,3.17
2018-12-14T23:32:25.615Z,3.63
2018-12-14T23:34:54.041Z,3.50
2018-12-14T23:37:22.456Z,3.40
2018-12-14T23:39:50.872Z,3.57
2018-12-14T23:42:19.345Z,3.60
2018-12-14T23:44:47.745Z,3.97
2018-12-14T23:47:16.200Z,4.10
2018-12-14T23:49:44.811Z,3.37
2018-12-14T23:52:13.404Z,3.70
2018-12-14T23:54:42.674Z,3.83
2018-12-14T23:57:12.275Z,3.60
2018-12-14T23:59:41.677Z,3.50
